createdAt,value
2023-02-11T00:00:02.454Z,2.8
2023-02-11T00:20:02.243Z,2.6
2023-02-11T00:40:04.445Z,2.7
2023-02-11T01:00:03.155Z,2.7
2023-02-11T01:20:02.689Z,2.8
2023-02-11T01:40:02.964Z,2.8
2023-02-11T02:00:02.492Z,2.9
2023-02-11T02:20:02.238Z,3.1
2023-02-11T02:40:02.637Z,3
2023-02-11T03:00:03.014Z,3.2
2023-02-11T03:20:02.651Z,3.3
2023-02-11T03:40:02.986Z,3.3
2023-02-11T04:00:02.439Z,3.5
2023-02-11T04:20:03.072Z,3.5
2023-02-11T04:40:02.502Z,3.5
2023-02-11T05:00:02.800Z,3.6
2023-02-11T05:20:02.258Z,3.8
2023-02-11T05:40:02.858Z,3.9
2023-02-11T06:00:02.269Z,4
2023-02-11T06:20:02.563Z,4.2
2023-02-11T06:40:03.150Z,4.3
2023-02-11T07:00:02.809Z,4.3
2023-02-11T07:20:02.434Z,4.5
2023-02-11T07:40:02.789Z,4.6
2023-02-11T08:00:02.249Z,4.9
2023-02-11T08:20:03.197Z,5.1
2023-02-11T08:40:02.608Z,5.3
2023-02-11T09:00:03.112Z,5.4
2023-02-11T09:20:02.886Z,5.6
2023-02-11T09:40:02.736Z,5.7
2023-02-11T10:00:03.101Z,5.9
2023-02-11T10:20:02.762Z,6.1
2023-02-11T10:40:02.279Z,6
2023-02-11T11:00:03.045Z,6.2
2023-02-11T11:20:02.976Z,6.3
2023-02-11T11:40:02.491Z,6.3
2023-02-11T12:00:03.125Z,6.4
2023-02-11T12:20:02.693Z,6.6
2023-02-11T12:40:03.162Z,6.7
2023-02-11T13:00:02.873Z,6.8
2023-02-11T13:20:03.165Z,6.8
2023-02-11T13:40:02.511Z,7
2023-02-11T14:00:03.357Z,7
2023-02-11T14:20:03.221Z,7.1
2023-02-11T14:40:02.675Z,7.1
2023-02-11T15:00:05.552Z,7.1
2023-02-11T15:20:02.280Z,7.2
2023-02-11T15:40:02.709Z,7.2
2023-02-11T16:00:03.708Z,7.2
2023-02-11T16:20:02.452Z,7.2
2023-02-11T16:40:02.944Z,7.3
2023-02-11T17:00:03.367Z,7.2
2023-02-11T17:20:02.546Z,7.2
2023-02-11T17:40:03.022Z,7.2
2023-02-11T18:00:04.695Z,7.3
2023-02-11T18:20:02.550Z,7.4
2023-02-11T18:40:03.025Z,7.2
2023-02-11T19:00:03.045Z,7.2
2023-02-11T19:20:02.997Z,7.2
2023-02-11T19:40:02.432Z,7.2
2023-02-11T20:00:03.477Z,7.2
2023-02-11T20:20:02.457Z,7.3
2023-02-11T20:40:03.653Z,7.3
2023-02-11T21:00:03.261Z,7.2
2023-02-11T21:20:03.053Z,7.1
2023-02-11T21:40:02.532Z,7.2
2023-02-11T22:00:02.941Z,7.2
2023-02-11T22:20:02.443Z,7.1
2023-02-11T22:40:02.933Z,7.1
2023-02-11T23:00:03.789Z,7.1
2023-02-11T23:20:02.307Z,7
2023-02-11T23:40:02.752Z,7
